sensor_id;sensor_type;location;lat;lon;timestamp;P1;durP1;ratioP1;P2;durP2;ratioP2
38843;SDS011;24596;48.080;8.362;2023-08-06T00:01:30;8.35;;;2.53;;
38843;SDS011;24596;48.080;8.362;2023-08-06T00:03:56;6.82;;;2.60;;
38843;SDS011;24596;48.080;8.362;2023-08-06T00:06:21;8.95;;;3.50;;
38843;SDS011;24596;48.080;8.362;2023-08-06T00:08:46;8.00;;;3.20;;
38843;SDS011;24596;48.080;8.362;2023-08-06T00:11:14;7.28;;;2.90;;
38843;SDS011;24596;48.080;8.362;2023-08-06T00:13:39;8.75;;;3.40;;
38843;SDS011;24596;48.080;8.362;2023-08-06T00:16:11;8.25;;;2.50;;
38843;SDS011;24596;48.080;8.362;2023-08-06T00:21:02;8.25;;;2.75;;
38843;SDS011;24596;48.080;8.362;2023-08-06T00:23:27;7.35;;;2.40;;
38843;SDS011;24596;48.080;8.362;2023-08-06T00:25:52;8.85;;;2.30;;
38843;SDS011;24596;48.080;8.362;2023-08-06T00:28:18;9.38;;;3.45;;
38843;SDS011;24596;48.080;8.362;2023-08-06T00:30:43;7.85;;;2.85;;
38843;SDS011;24596;48.080;8.362;2023-08-06T00:33:08;5.53;;;2.47;;
38843;SDS011;24596;48.080;8.362;2023-08-06T00:35:33;9.55;;;2.88;;
38843;SDS011;24596;48.080;8.362;2023-08-06T00:37:58;4.60;;;1.70;;
38843;SDS011;24596;48.080;8.362;2023-08-06T00:40:24;7.97;;;2.47;;
38843;SDS011;24596;48.080;8.362;2023-08-06T00:42:49;5.05;;;2.20;;
38843;SDS011;24596;48.080;8.362;2023-08-06T00:45:17;5.25;;;2.08;;
38843;SDS011;24596;48.080;8.362;2023-08-06T00:47:42;5.22;;;1.77;;
38843;SDS011;24596;48.080;8.362;2023-08-06T00:50:08;5.18;;;1.83;;
38843;SDS011;24596;48.080;8.362;2023-08-06T00:52:34;3.30;;;1.10;;
38843;SDS011;24596;48.080;8.362;2023-08-06T00:54:59;4.35;;;1.63;;
38843;SDS011;24596;48.080;8.362;2023-08-06T00:57:24;5.88;;;1.65;;
38843;SDS011;24596;48.080;8.362;2023-08-06T00:59:51;6.00;;;1.70;;
38843;SDS011;24596;48.080;8.362;2023-08-06T01:02:16;5.70;;;1.60;;
38843;SDS011;24596;48.080;8.362;2023-08-06T01:04:41;6.05;;;1.52;;
38843;SDS011;24596;48.080;8.362;2023-08-06T01:08:08;8.07;;;2.35;;
38843;SDS011;24596;48.080;8.362;2023-08-06T01:12:47;4.45;;;1.80;;
38843;SDS011;24596;48.080;8.362;2023-08-06T01:15:15;6.47;;;1.95;;
38843;SDS011;24596;48.080;8.362;2023-08-06T01:17:41;4.65;;;1.92;;
38843;SDS011;24596;48.080;8.362;2023-08-06T01:20:07;7.03;;;2.00;;
38843;SDS011;24596;48.080;8.362;2023-08-06T01:22:33;7.32;;;2.60;;
38843;SDS011;24596;48.080;8.362;2023-08-06T01:24:58;4.75;;;2.08;;
38843;SDS011;24596;48.080;8.362;2023-08-06T01:27:28;4.80;;;1.98;;
38843;SDS011;24596;48.080;8.362;2023-08-06T01:29:56;8.25;;;2.00;;
38843;SDS011;24596;48.080;8.362;2023-08-06T01:32:22;6.78;;;2.10;;
38843;SDS011;24596;48.080;8.362;2023-08-06T01:34:48;4.18;;;1.90;;
38843;SDS011;24596;48.080;8.362;2023-08-06T01:37:14;5.10;;;2.20;;
38843;SDS011;24596;48.080;8.362;2023-08-06T01:39:40;4.97;;;1.98;;
38843;SDS011;24596;48.080;8.362;2023-08-06T01:42:07;6.47;;;2.08;;
38843;SDS011;24596;48.080;8.362;2023-08-06T01:44:32;6.88;;;1.95;;
38843;SDS011;24596;48.080;8.362;2023-08-06T01:46:57;5.50;;;2.22;;
38843;SDS011;24596;48.080;8.362;2023-08-06T01:49:23;7.47;;;2.10;;
38843;SDS011;24596;48.080;8.362;2023-08-06T01:51:48;6.22;;;1.80;;
38843;SDS011;24596;48.080;8.362;2023-08-06T01:54:13;6.97;;;1.70;;
38843;SDS011;24596;48.080;8.362;2023-08-06T01:56:41;5.63;;;2.00;;
38843;SDS011;24596;48.080;8.362;2023-08-06T01:59:07;5.30;;;1.70;;
38843;SDS011;24596;48.080;8.362;2023-08-06T02:01:32;6.40;;;1.98;;
38843;SDS011;24596;48.080;8.362;2023-08-06T02:03:57;6.20;;;2.20;;
38843;SDS011;24596;48.080;8.362;2023-08-06T02:06:22;7.28;;;2.03;;
38843;SDS011;24596;48.080;8.362;2023-08-06T02:08:48;7.55;;;1.95;;
38843;SDS011;24596;48.080;8.362;2023-08-06T02:11:13;7.25;;;1.60;;
38843;SDS011;24596;48.080;8.362;2023-08-06T02:13:38;6.57;;;1.98;;
38843;SDS011;24596;48.080;8.362;2023-08-06T02:16:05;6.20;;;2.42;;
38843;SDS011;24596;48.080;8.362;2023-08-06T02:18:31;7.03;;;2.33;;
38843;SDS011;24596;48.080;8.362;2023-08-06T02:20:57;6.22;;;1.52;;
38843;SDS011;24596;48.080;8.362;2023-08-06T02:23:22;5.57;;;1.90;;
38843;SDS011;24596;48.080;8.362;2023-08-06T02:25:48;6.10;;;1.80;;
38843;SDS011;24596;48.080;8.362;2023-08-06T02:28:13;6.13;;;1.25;;
38843;SDS011;24596;48.080;8.362;2023-08-06T02:30:38;10.40;;;1.98;;
38843;SDS011;24596;48.080;8.362;2023-08-06T02:33:03;8.15;;;2.10;;
38843;SDS011;24596;48.080;8.362;2023-08-06T02:35:29;9.32;;;2.30;;
38843;SDS011;24596;48.080;8.362;2023-08-06T02:37:54;5.82;;;2.00;;
38843;SDS011;24596;48.080;8.362;2023-08-06T02:40:19;5.18;;;2.22;;
38843;SDS011;24596;48.080;8.362;2023-08-06T02:42:44;7.75;;;1.95;;
38843;SDS011;24596;48.080;8.362;2023-08-06T02:45:10;6.72;;;2.35;;
38843;SDS011;24596;48.080;8.362;2023-08-06T02:47:35;8.57;;;2.00;;
38843;SDS011;24596;48.080;8.362;2023-08-06T02:50:00;7.03;;;1.80;;
38843;SDS011;24596;48.080;8.362;2023-08-06T02:52:25;6.90;;;2.05;;
38843;SDS011;24596;48.080;8.362;2023-08-06T02:54:51;7.90;;;1.70;;
38843;SDS011;24596;48.080;8.362;2023-08-06T02:57:16;9.63;;;2.03;;
38843;SDS011;24596;48.080;8.362;2023-08-06T02:59:41;5.47;;;1.25;;
38843;SDS011;24596;48.080;8.362;2023-08-06T03:02:07;5.97;;;1.50;;
38843;SDS011;24596;48.080;8.362;2023-08-06T03:04:32;5.82;;;1.40;;
38843;SDS011;24596;48.080;8.362;2023-08-06T03:06:57;6.70;;;1.33;;
38843;SDS011;24596;48.080;8.362;2023-08-06T03:09:22;5.93;;;1.38;;
38843;SDS011;24596;48.080;8.362;2023-08-06T03:11:51;5.07;;;1.10;;
38843;SDS011;24596;48.080;8.362;2023-08-06T03:14:16;3.60;;;0.90;;
38843;SDS011;24596;48.080;8.362;2023-08-06T03:16:41;1.90;;;0.73;;
38843;SDS011;24596;48.080;8.362;2023-08-06T03:19:06;3.53;;;0.70;;
38843;SDS011;24596;48.080;8.362;2023-08-06T03:21:32;4.60;;;0.57;;
38843;SDS011;24596;48.080;8.362;2023-08-06T03:23:57;2.15;;;0.68;;
38843;SDS011;24596;48.080;8.362;2023-08-06T03:26:22;3.45;;;0.65;;
38843;SDS011;24596;48.080;8.362;2023-08-06T03:28:48;2.65;;;0.65;;
38843;SDS011;24596;48.080;8.362;2023-08-06T03:31:13;2.00;;;0.57;;
38843;SDS011;24596;48.080;8.362;2023-08-06T03:33:38;5.57;;;0.60;;
38843;SDS011;24596;48.080;8.362;2023-08-06T03:36:03;2.88;;;0.70;;
38843;SDS011;24596;48.080;8.362;2023-08-06T03:38:29;2.78;;;0.47;;
38843;SDS011;24596;48.080;8.362;2023-08-06T03:40:54;2.95;;;0.55;;
38843;SDS011;24596;48.080;8.362;2023-08-06T03:43:19;2.95;;;0.73;;
38843;SDS011;24596;48.080;8.362;2023-08-06T03:45:44;1.75;;;0.57;;
38843;SDS011;24596;48.080;8.362;2023-08-06T03:48:10;2.03;;;0.60;;
38843;SDS011;24596;48.080;8.362;2023-08-06T03:50:35;3.38;;;0.55;;
38843;SDS011;24596;48.080;8.362;2023-08-06T03:53:00;1.85;;;0.40;;
38843;SDS011;24596;48.080;8.362;2023-08-06T03:55:29;2.25;;;0.57;;
38843;SDS011;24596;48.080;8.362;2023-08-06T03:57:54;2.60;;;0.73;;
38843;SDS011;24596;48.080;8.362;2023-08-06T04:00:20;4.05;;;0.90;;
38843;SDS011;24596;48.080;8.362;2023-08-06T04:02:45;3.53;;;0.80;;
38843;SDS011;24596;48.080;8.362;2023-08-06T04:05:13;5.65;;;0.80;;
38843;SDS011;24596;48.080;8.362;2023-08-06T04:07:38;2.65;;;0.70;;
38843;SDS011;24596;48.080;8.362;2023-08-06T04:10:04;2.00;;;0.60;;
38843;SDS011;24596;48.080;8.362;2023-08-06T04:12:29;3.22;;;0.60;;
38843;SDS011;24596;48.080;8.362;2023-08-06T04:14:56;3.15;;;0.70;;
38843;SDS011;24596;48.080;8.362;2023-08-06T04:17:22;7.05;;;1.63;;
38843;SDS011;24596;48.080;8.362;2023-08-06T04:19:48;3.83;;;0.70;;
38843;SDS011;24596;48.080;8.362;2023-08-06T04:22:14;4.25;;;0.70;;
38843;SDS011;24596;48.080;8.362;2023-08-06T04:24:39;3.38;;;0.50;;
38843;SDS011;24596;48.080;8.362;2023-08-06T04:27:05;3.53;;;0.50;;
38843;SDS011;24596;48.080;8.362;2023-08-06T04:29:30;2.80;;;0.65;;
38843;SDS011;24596;48.080;8.362;2023-08-06T04:31:55;4.07;;;0.57;;
38843;SDS011;24596;48.080;8.362;2023-08-06T04:34:20;3.25;;;0.57;;
38843;SDS011;24596;48.080;8.362;2023-08-06T04:36:46;4.82;;;0.60;;
38843;SDS011;24596;48.080;8.362;2023-08-06T04:39:11;3.70;;;0.65;;
38843;SDS011;24596;48.080;8.362;2023-08-06T04:41:36;4.43;;;0.77;;
38843;SDS011;24596;48.080;8.362;2023-08-06T04:44:01;3.28;;;0.60;;
38843;SDS011;24596;48.080;8.362;2023-08-06T04:46:27;3.92;;;0.60;;
38843;SDS011;24596;48.080;8.362;2023-08-06T04:48:52;2.30;;;0.70;;
38843;SDS011;24596;48.080;8.362;2023-08-06T04:51:17;2.13;;;0.85;;
38843;SDS011;24596;48.080;8.362;2023-08-06T04:53:42;2.30;;;0.60;;
38843;SDS011;24596;48.080;8.362;2023-08-06T04:56:08;2.47;;;0.65;;
38843;SDS011;24596;48.080;8.362;2023-08-06T04:58:33;2.90;;;0.70;;
38843;SDS011;24596;48.080;8.362;2023-08-06T05:00:58;3.45;;;0.70;;
38843;SDS011;24596;48.080;8.362;2023-08-06T05:03:23;2.38;;;0.50;;
38843;SDS011;24596;48.080;8.362;2023-08-06T05:05:49;3.22;;;0.60;;
38843;SDS011;24596;48.080;8.362;2023-08-06T05:08:15;2.00;;;0.50;;
38843;SDS011;24596;48.080;8.362;2023-08-06T05:10:44;2.78;;;0.50;;
38843;SDS011;24596;48.080;8.362;2023-08-06T05:13:09;1.23;;;0.57;;
38843;SDS011;24596;48.080;8.362;2023-08-06T05:15:34;2.97;;;0.80;;
38843;SDS011;24596;48.080;8.362;2023-08-06T05:17:59;2.50;;;1.10;;
38843;SDS011;24596;48.080;8.362;2023-08-06T05:20:25;2.85;;;0.50;;
38843;SDS011;24596;48.080;8.362;2023-08-06T05:22:50;3.78;;;0.80;;
38843;SDS011;24596;48.080;8.362;2023-08-06T05:25:16;1.48;;;0.38;;
38843;SDS011;24596;48.080;8.362;2023-08-06T05:27:41;0.32;;;0.30;;
38843;SDS011;24596;48.080;8.362;2023-08-06T05:30:06;0.60;;;0.30;;
38843;SDS011;24596;48.080;8.362;2023-08-06T05:32:32;0.82;;;0.20;;
38843;SDS011;24596;48.080;8.362;2023-08-06T05:34:57;1.83;;;0.28;;
38843;SDS011;24596;48.080;8.362;2023-08-06T05:37:22;0.95;;;0.30;;
38843;SDS011;24596;48.080;8.362;2023-08-06T05:39:48;1.15;;;0.22;;
38843;SDS011;24596;48.080;8.362;2023-08-06T05:42:13;0.13;;;0.10;;
38843;SDS011;24596;48.080;8.362;2023-08-06T05:44:38;0.35;;;0.20;;
38843;SDS011;24596;48.080;8.362;2023-08-06T05:47:04;0.10;;;0.10;;
38843;SDS011;24596;48.080;8.362;2023-08-06T05:49:29;0.38;;;0.20;;
38843;SDS011;24596;48.080;8.362;2023-08-06T05:51:54;0.15;;;0.10;;
38843;SDS011;24596;48.080;8.362;2023-08-06T05:54:19;1.45;;;0.20;;
38843;SDS011;24596;48.080;8.362;2023-08-06T05:56:45;1.27;;;0.10;;
38843;SDS011;24596;48.080;8.362;2023-08-06T05:59:10;0.90;;;0.17;;
38843;SDS011;24596;48.080;8.362;2023-08-06T06:01:35;0.10;;;0.10;;
38843;SDS011;24596;48.080;8.362;2023-08-06T06:04:00;0.55;;;0.10;;
38843;SDS011;24596;48.080;8.362;2023-08-06T06:06:26;0.20;;;0.10;;
38843;SDS011;24596;48.080;8.362;2023-08-06T06:08:51;0.10;;;0.08;;
38843;SDS011;24596;48.080;8.362;2023-08-06T06:11:16;0.70;;;0.20;;
38843;SDS011;24596;48.080;8.362;2023-08-06T06:13:41;0.47;;;0.20;;
38843;SDS011;24596;48.080;8.362;2023-08-06T06:16:07;0.32;;;0.10;;
38843;SDS011;24596;48.080;8.362;2023-08-06T06:18:32;0.40;;;0.20;;
38843;SDS011;24596;48.080;8.362;2023-08-06T06:20:57;0.05;;;0.05;;
38843;SDS011;24596;48.080;8.362;2023-08-06T06:23:22;0.30;;;0.20;;
38843;SDS011;24596;48.080;8.362;2023-08-06T06:25:48;2.97;;;0.20;;
38843;SDS011;24596;48.080;8.362;2023-08-06T06:28:14;0.10;;;0.10;;
38843;SDS011;24596;48.080;8.362;2023-08-06T06:30:40;1.52;;;0.20;;
38843;SDS011;24596;48.080;8.362;2023-08-06T06:33:06;0.82;;;0.10;;
38843;SDS011;24596;48.080;8.362;2023-08-06T06:35:31;0.10;;;0.10;;
38843;SDS011;24596;48.080;8.362;2023-08-06T06:37:56;0.73;;;0.10;;
38843;SDS011;24596;48.080;8.362;2023-08-06T06:40:21;0.63;;;0.10;;
38843;SDS011;24596;48.080;8.362;2023-08-06T06:42:47;0.20;;;0.20;;
38843;SDS011;24596;48.080;8.362;2023-08-06T06:45:12;0.10;;;0.10;;
38843;SDS011;24596;48.080;8.362;2023-08-06T06:47:37;0.52;;;0.13;;
38843;SDS011;24596;48.080;8.362;2023-08-06T06:50:02;0.30;;;0.20;;
38843;SDS011;24596;48.080;8.362;2023-08-06T06:52:28;0.30;;;0.20;;
38843;SDS011;24596;48.080;8.362;2023-08-06T06:54:53;0.90;;;0.30;;
38843;SDS011;24596;48.080;8.362;2023-08-06T06:57:18;1.40;;;0.20;;
38843;SDS011;24596;48.080;8.362;2023-08-06T06:59:44;1.63;;;0.10;;
38843;SDS011;24596;48.080;8.362;2023-08-06T07:02:09;2.28;;;0.20;;
38843;SDS011;24596;48.080;8.362;2023-08-06T07:04:34;0.10;;;0.10;;
38843;SDS011;24596;48.080;8.362;2023-08-06T07:06:59;4.47;;;0.90;;
38843;SDS011;24596;48.080;8.362;2023-08-06T07:09:25;0.65;;;0.30;;
38843;SDS011;24596;48.080;8.362;2023-08-06T07:11:50;1.08;;;0.22;;
38843;SDS011;24596;48.080;8.362;2023-08-06T07:14:15;0.82;;;0.20;;
38843;SDS011;24596;48.080;8.362;2023-08-06T07:16:40;1.40;;;0.20;;
38843;SDS011;24596;48.080;8.362;2023-08-06T07:19:06;0.63;;;0.10;;
38843;SDS011;24596;48.080;8.362;2023-08-06T07:21:31;0.35;;;0.10;;
38843;SDS011;24596;48.080;8.362;2023-08-06T07:23:57;0.17;;;0.17;;
38843;SDS011;24596;48.080;8.362;2023-08-06T07:26:24;1.88;;;0.10;;
38843;SDS011;24596;48.080;8.362;2023-08-06T07:28:49;0.10;;;0.10;;
38843;SDS011;24596;48.080;8.362;2023-08-06T07:31:14;0.20;;;0.10;;
38843;SDS011;24596;48.080;8.362;2023-08-06T07:33:40;0.20;;;0.15;;
38843;SDS011;24596;48.080;8.362;2023-08-06T07:36:12;0.30;;;0.20;;
38843;SDS011;24596;48.080;8.362;2023-08-06T07:38:38;0.98;;;0.30;;
38843;SDS011;24596;48.080;8.362;2023-08-06T07:41:03;0.25;;;0.10;;
38843;SDS011;24596;48.080;8.362;2023-08-06T07:43:29;0.20;;;0.20;;
38843;SDS011;24596;48.080;8.362;2023-08-06T07:45:54;0.20;;;0.20;;
38843;SDS011;24596;48.080;8.362;2023-08-06T07:48:22;0.40;;;0.20;;
38843;SDS011;24596;48.080;8.362;2023-08-06T07:50:50;0.30;;;0.13;;
38843;SDS011;24596;48.080;8.362;2023-08-06T07:53:18;0.93;;;0.20;;
38843;SDS011;24596;48.080;8.362;2023-08-06T07:55:43;0.40;;;0.25;;
38843;SDS011;24596;48.080;8.362;2023-08-06T07:58:08;0.20;;;0.20;;
38843;SDS011;24596;48.080;8.362;2023-08-06T08:00:34;0.15;;;0.13;;
38843;SDS011;24596;48.080;8.362;2023-08-06T08:02:59;0.08;;;0.08;;
38843;SDS011;24596;48.080;8.362;2023-08-06T08:05:24;1.85;;;0.80;;
38843;SDS011;24596;48.080;8.362;2023-08-06T08:07:49;0.35;;;0.10;;
38843;SDS011;24596;48.080;8.362;2023-08-06T08:10:15;0.28;;;0.10;;
38843;SDS011;24596;48.080;8.362;2023-08-06T08:12:40;0.35;;;0.13;;
38843;SDS011;24596;48.080;8.362;2023-08-06T08:15:05;0.40;;;0.10;;
38843;SDS011;24596;48.080;8.362;2023-08-06T08:17:31;2.75;;;0.10;;
38843;SDS011;24596;48.080;8.362;2023-08-06T08:19:56;0.10;;;0.10;;
38843;SDS011;24596;48.080;8.362;2023-08-06T08:22:21;0.80;;;0.10;;
38843;SDS011;24596;48.080;8.362;2023-08-06T08:24:46;0.13;;;0.10;;
38843;SDS011;24596;48.080;8.362;2023-08-06T08:27:12;0.73;;;0.20;;
38843;SDS011;24596;48.080;8.362;2023-08-06T08:29:37;0.50;;;0.10;;
38843;SDS011;24596;48.080;8.362;2023-08-06T08:32:02;0.57;;;0.30;;
38843;SDS011;24596;48.080;8.362;2023-08-06T08:34:27;0.68;;;0.68;;
38843;SDS011;24596;48.080;8.362;2023-08-06T08:36:53;1.38;;;0.10;;
38843;SDS011;24596;48.080;8.362;2023-08-06T08:39:18;0.10;;;0.10;;
38843;SDS011;24596;48.080;8.362;2023-08-06T08:41:43;0.32;;;0.10;;
38843;SDS011;24596;48.080;8.362;2023-08-06T08:44:09;0.00;;;0.00;;
38843;SDS011;24596;48.080;8.362;2023-08-06T08:46:35;0.98;;;0.10;;
38843;SDS011;24596;48.080;8.362;2023-08-06T08:49:01;0.50;;;0.38;;
38843;SDS011;24596;48.080;8.362;2023-08-06T08:51:27;0.60;;;0.10;;
38843;SDS011;24596;48.080;8.362;2023-08-06T08:53:53;1.60;;;0.50;;
38843;SDS011;24596;48.080;8.362;2023-08-06T08:56:21;3.03;;;1.05;;
38843;SDS011;24596;48.080;8.362;2023-08-06T08:58:46;1.23;;;0.30;;
38843;SDS011;24596;48.080;8.362;2023-08-06T09:01:12;0.82;;;0.40;;
38843;SDS011;24596;48.080;8.362;2023-08-06T09:03:37;0.30;;;0.20;;
38843;SDS011;24596;48.080;8.362;2023-08-06T09:06:04;0.52;;;0.20;;
38843;SDS011;24596;48.080;8.362;2023-08-06T09:08:32;1.35;;;0.10;;
38843;SDS011;24596;48.080;8.362;2023-08-06T09:11:05;0.20;;;0.20;;
38843;SDS011;24596;48.080;8.362;2023-08-06T09:13:35;0.00;;;0.00;;
38843;SDS011;24596;48.080;8.362;2023-08-06T09:16:00;0.55;;;0.17;;
38843;SDS011;24596;48.080;8.362;2023-08-06T09:18:26;0.20;;;0.10;;
38843;SDS011;24596;48.080;8.362;2023-08-06T09:20:54;0.13;;;0.10;;
38843;SDS011;24596;48.080;8.362;2023-08-06T09:23:19;2.30;;;0.50;;
38843;SDS011;24596;48.080;8.362;2023-08-06T09:25:45;1.05;;;0.30;;
38843;SDS011;24596;48.080;8.362;2023-08-06T09:28:10;0.90;;;0.10;;
38843;SDS011;24596;48.080;8.362;2023-08-06T09:30:36;0.70;;;0.10;;
38843;SDS011;24596;48.080;8.362;2023-08-06T09:33:02;0.10;;;0.10;;
38843;SDS011;24596;48.080;8.362;2023-08-06T09:35:31;0.17;;;0.10;;
38843;SDS011;24596;48.080;8.362;2023-08-06T09:38:06;0.10;;;0.10;;
38843;SDS011;24596;48.080;8.362;2023-08-06T09:40:35;1.40;;;0.10;;
38843;SDS011;24596;48.080;8.362;2023-08-06T09:43:00;0.13;;;0.10;;
38843;SDS011;24596;48.080;8.362;2023-08-06T09:45:28;0.25;;;0.20;;
38843;SDS011;24596;48.080;8.362;2023-08-06T09:47:58;0.30;;;0.20;;
38843;SDS011;24596;48.080;8.362;2023-08-06T09:50:23;3.78;;;0.10;;
38843;SDS011;24596;48.080;8.362;2023-08-06T09:52:52;0.10;;;0.10;;
38843;SDS011;24596;48.080;8.362;2023-08-06T09:55:17;0.35;;;0.20;;
38843;SDS011;24596;48.080;8.362;2023-08-06T09:57:43;0.40;;;0.17;;
38843;SDS011;24596;48.080;8.362;2023-08-06T10:00:09;0.75;;;0.30;;
38843;SDS011;24596;48.080;8.362;2023-08-06T10:02:36;1.35;;;0.40;;
38843;SDS011;24596;48.080;8.362;2023-08-06T10:05:02;0.70;;;0.20;;
38843;SDS011;24596;48.080;8.362;2023-08-06T10:07:28;0.88;;;0.22;;
38843;SDS011;24596;48.080;8.362;2023-08-06T10:09:54;1.38;;;0.10;;
38843;SDS011;24596;48.080;8.362;2023-08-06T10:12:20;0.10;;;0.10;;
38843;SDS011;24596;48.080;8.362;2023-08-06T10:14:46;0.10;;;0.10;;
38843;SDS011;24596;48.080;8.362;2023-08-06T10:17:12;0.32;;;0.10;;
38843;SDS011;24596;48.080;8.362;2023-08-06T10:19:37;0.40;;;0.20;;
38843;SDS011;24596;48.080;8.362;2023-08-06T10:22:12;0.45;;;0.20;;
38843;SDS011;24596;48.080;8.362;2023-08-06T10:27:12;0.00;;;0.00;;
38843;SDS011;24596;48.080;8.362;2023-08-06T10:29:38;0.35;;;0.10;;
38843;SDS011;24596;48.080;8.362;2023-08-06T10:32:03;0.10;;;0.08;;
38843;SDS011;24596;48.080;8.362;2023-08-06T10:37:15;0.32;;;0.10;;
38843;SDS011;24596;48.080;8.362;2023-08-06T10:39:47;0.22;;;0.10;;
38843;SDS011;24596;48.080;8.362;2023-08-06T10:42:46;0.63;;;0.20;;
38843;SDS011;24596;48.080;8.362;2023-08-06T10:45:14;0.60;;;0.20;;
38843;SDS011;24596;48.080;8.362;2023-08-06T10:47:40;0.10;;;0.10;;
38843;SDS011;24596;48.080;8.362;2023-08-06T10:50:15;0.25;;;0.10;;
38843;SDS011;24596;48.080;8.362;2023-08-06T10:52:44;0.60;;;0.10;;
38843;SDS011;24596;48.080;8.362;2023-08-06T10:55:09;0.20;;;0.10;;
38843;SDS011;24596;48.080;8.362;2023-08-06T10:57:38;0.10;;;0.10;;
38843;SDS011;24596;48.080;8.362;2023-08-06T11:00:04;0.10;;;0.10;;
38843;SDS011;24596;48.080;8.362;2023-08-06T11:02:32;0.82;;;0.10;;
38843;SDS011;24596;48.080;8.362;2023-08-06T11:04:58;0.20;;;0.20;;
38843;SDS011;24596;48.080;8.362;2023-08-06T11:07:23;0.32;;;0.10;;
38843;SDS011;24596;48.080;8.362;2023-08-06T11:09:53;0.25;;;0.10;;
38843;SDS011;24596;48.080;8.362;2023-08-06T11:14:50;0.20;;;0.20;;
38843;SDS011;24596;48.080;8.362;2023-08-06T11:17:16;0.10;;;0.10;;
38843;SDS011;24596;48.080;8.362;2023-08-06T11:19:41;0.40;;;0.20;;
38843;SDS011;24596;48.080;8.362;2023-08-06T11:22:06;1.52;;;0.20;;
38843;SDS011;24596;48.080;8.362;2023-08-06T11:24:32;0.32;;;0.10;;
38843;SDS011;24596;48.080;8.362;2023-08-06T11:26:57;0.55;;;0.20;;
38843;SDS011;24596;48.080;8.362;2023-08-06T11:29:22;0.75;;;0.30;;
38843;SDS011;24596;48.080;8.362;2023-08-06T11:31:48;0.60;;;0.25;;
38843;SDS011;24596;48.080;8.362;2023-08-06T11:34:13;1.02;;;0.20;;
38843;SDS011;24596;48.080;8.362;2023-08-06T11:36:40;1.25;;;0.20;;
38843;SDS011;24596;48.080;8.362;2023-08-06T11:39:08;1.95;;;0.45;;
38843;SDS011;24596;48.080;8.362;2023-08-06T11:41:35;3.08;;;0.82;;
38843;SDS011;24596;48.080;8.362;2023-08-06T11:44:03;3.55;;;1.00;;
38843;SDS011;24596;48.080;8.362;2023-08-06T11:46:28;1.63;;;0.40;;
38843;SDS011;24596;48.080;8.362;2023-08-06T11:48:54;0.82;;;0.40;;
38843;SDS011;24596;48.080;8.362;2023-08-06T11:51:22;0.70;;;0.40;;
38843;SDS011;24596;48.080;8.362;2023-08-06T11:53:51;0.98;;;0.40;;
38843;SDS011;24596;48.080;8.362;2023-08-06T11:56:16;3.25;;;0.90;;
38843;SDS011;24596;48.080;8.362;2023-08-06T11:58:42;1.15;;;0.28;;
38843;SDS011;24596;48.080;8.362;2023-08-06T12:01:07;0.73;;;0.30;;
38843;SDS011;24596;48.080;8.362;2023-08-06T12:03:32;0.35;;;0.10;;
38843;SDS011;24596;48.080;8.362;2023-08-06T12:05:58;0.03;;;0.03;;
38843;SDS011;24596;48.080;8.362;2023-08-06T12:08:26;0.10;;;0.10;;
38843;SDS011;24596;48.080;8.362;2023-08-06T12:10:51;0.30;;;0.13;;
38843;SDS011;24596;48.080;8.362;2023-08-06T12:13:18;0.32;;;0.20;;
38843;SDS011;24596;48.080;8.362;2023-08-06T12:15:44;0.38;;;0.25;;
38843;SDS011;24596;48.080;8.362;2023-08-06T12:18:09;0.30;;;0.10;;
38843;SDS011;24596;48.080;8.362;2023-08-06T12:20:35;0.70;;;0.30;;
38843;SDS011;24596;48.080;8.362;2023-08-06T12:23:00;0.20;;;0.10;;
38843;SDS011;24596;48.080;8.362;2023-08-06T12:25:25;1.17;;;0.30;;
38843;SDS011;24596;48.080;8.362;2023-08-06T12:27:51;0.22;;;0.10;;
38843;SDS011;24596;48.080;8.362;2023-08-06T12:30:16;0.70;;;0.40;;
38843;SDS011;24596;48.080;8.362;2023-08-06T12:32:44;0.73;;;0.20;;
38843;SDS011;24596;48.080;8.362;2023-08-06T12:35:12;0.70;;;0.22;;
38843;SDS011;24596;48.080;8.362;2023-08-06T12:37:39;0.32;;;0.20;;
38843;SDS011;24596;48.080;8.362;2023-08-06T12:40:04;0.90;;;0.40;;
38843;SDS011;24596;48.080;8.362;2023-08-06T12:42:29;0.65;;;0.20;;
38843;SDS011;24596;48.080;8.362;2023-08-06T12:44:55;1.35;;;0.40;;
38843;SDS011;24596;48.080;8.362;2023-08-06T12:47:20;1.55;;;0.43;;
38843;SDS011;24596;48.080;8.362;2023-08-06T12:49:45;0.90;;;0.40;;
38843;SDS011;24596;48.080;8.362;2023-08-06T12:52:11;0.20;;;0.20;;
38843;SDS011;24596;48.080;8.362;2023-08-06T12:54:39;1.35;;;0.50;;
38843;SDS011;24596;48.080;8.362;2023-08-06T12:57:05;1.30;;;0.55;;
38843;SDS011;24596;48.080;8.362;2023-08-06T12:59:30;1.38;;;0.50;;
38843;SDS011;24596;48.080;8.362;2023-08-06T13:01:56;1.23;;;0.40;;
38843;SDS011;24596;48.080;8.362;2023-08-06T13:04:21;0.57;;;0.32;;
38843;SDS011;24596;48.080;8.362;2023-08-06T13:06:46;0.57;;;0.30;;
38843;SDS011;24596;48.080;8.362;2023-08-06T13:09:12;2.17;;;0.85;;
38843;SDS011;24596;48.080;8.362;2023-08-06T13:11:38;0.98;;;0.50;;
38843;SDS011;24596;48.080;8.362;2023-08-06T13:14:07;0.85;;;0.40;;
38843;SDS011;24596;48.080;8.362;2023-08-06T13:16:34;0.85;;;0.52;;
38843;SDS011;24596;48.080;8.362;2023-08-06T13:18:59;1.60;;;0.80;;
38843;SDS011;24596;48.080;8.362;2023-08-06T13:21:30;4.20;;;1.30;;
38843;SDS011;24596;48.080;8.362;2023-08-06T13:23:56;1.65;;;0.50;;
38843;SDS011;24596;48.080;8.362;2023-08-06T13:26:21;2.05;;;1.00;;
38843;SDS011;24596;48.080;8.362;2023-08-06T13:28:46;0.73;;;0.47;;
38843;SDS011;24596;48.080;8.362;2023-08-06T13:31:13;1.42;;;0.57;;
38843;SDS011;24596;48.080;8.362;2023-08-06T13:33:38;2.85;;;0.77;;
38843;SDS011;24596;48.080;8.362;2023-08-06T13:36:03;1.83;;;0.80;;
38843;SDS011;24596;48.080;8.362;2023-08-06T13:38:28;2.63;;;0.80;;
38843;SDS011;24596;48.080;8.362;2023-08-06T13:40:54;4.38;;;0.80;;
38843;SDS011;24596;48.080;8.362;2023-08-06T13:43:19;2.30;;;0.82;;
38843;SDS011;24596;48.080;8.362;2023-08-06T13:45:44;1.70;;;0.60;;
38843;SDS011;24596;48.080;8.362;2023-08-06T13:48:09;3.65;;;0.80;;
38843;SDS011;24596;48.080;8.362;2023-08-06T13:50:35;1.67;;;0.80;;
38843;SDS011;24596;48.080;8.362;2023-08-06T13:53:00;1.95;;;0.95;;
38843;SDS011;24596;48.080;8.362;2023-08-06T13:55:27;2.60;;;0.60;;
38843;SDS011;24596;48.080;8.362;2023-08-06T13:57:52;1.58;;;0.70;;
38843;SDS011;24596;48.080;8.362;2023-08-06T14:00:17;1.88;;;0.63;;
38843;SDS011;24596;48.080;8.362;2023-08-06T14:02:43;4.68;;;1.50;;
38843;SDS011;24596;48.080;8.362;2023-08-06T14:05:09;3.88;;;1.17;;
38843;SDS011;24596;48.080;8.362;2023-08-06T14:07:41;1.80;;;0.68;;
38843;SDS011;24596;48.080;8.362;2023-08-06T14:10:06;4.00;;;0.80;;
38843;SDS011;24596;48.080;8.362;2023-08-06T14:12:34;3.13;;;0.82;;
38843;SDS011;24596;48.080;8.362;2023-08-06T14:14:59;3.10;;;0.80;;
38843;SDS011;24596;48.080;8.362;2023-08-06T14:17:24;2.70;;;1.00;;
38843;SDS011;24596;48.080;8.362;2023-08-06T14:19:49;6.13;;;1.30;;
38843;SDS011;24596;48.080;8.362;2023-08-06T14:22:15;3.58;;;1.08;;
38843;SDS011;24596;48.080;8.362;2023-08-06T14:24:40;3.70;;;1.33;;
38843;SDS011;24596;48.080;8.362;2023-08-06T14:27:06;4.40;;;1.00;;
38843;SDS011;24596;48.080;8.362;2023-08-06T14:29:32;2.85;;;1.13;;
38843;SDS011;24596;48.080;8.362;2023-08-06T14:31:57;2.85;;;1.05;;
38843;SDS011;24596;48.080;8.362;2023-08-06T14:34:22;4.03;;;1.40;;
38843;SDS011;24596;48.080;8.362;2023-08-06T14:36:47;2.33;;;0.82;;
38843;SDS011;24596;48.080;8.362;2023-08-06T14:39:13;1.65;;;0.80;;
38843;SDS011;24596;48.080;8.362;2023-08-06T14:41:44;2.63;;;1.05;;
38843;SDS011;24596;48.080;8.362;2023-08-06T14:44:09;3.85;;;1.67;;
38843;SDS011;24596;48.080;8.362;2023-08-06T14:46:36;2.80;;;1.00;;
38843;SDS011;24596;48.080;8.362;2023-08-06T14:49:02;2.97;;;1.00;;
38843;SDS011;24596;48.080;8.362;2023-08-06T14:51:27;2.28;;;1.10;;
38843;SDS011;24596;48.080;8.362;2023-08-06T14:53:53;0.73;;;0.60;;